createdAt,value
2023-04-15T00:00:55.376Z,92.00
2023-04-15T00:03:43.990Z,92.69
2023-04-15T00:06:32.518Z,92.68
2023-04-15T00:09:21.069Z,92.21
2023-04-15T00:12:10.770Z,92.61
2023-04-15T00:14:59.070Z,93.28
2023-04-15T00:17:47.846Z,92.51
2023-04-15T00:20:37.075Z,91.98
2023-04-15T00:23:26.028Z,91.66
2023-04-15T00:26:14.429Z,91.26
2023-04-15T00:29:04.731Z,90.76
2023-04-15T00:31:53.561Z,90.31
2023-04-15T00:34:42.162Z,89.54
2023-04-15T00:37:30.603Z,89.22
2023-04-15T00:40:20.164Z,89.27
2023-04-15T00:43:08.494Z,90.49
2023-04-15T00:45:58.468Z,90.32
2023-04-15T00:48:47.300Z,90.74
2023-04-15T00:51:36.983Z,90.79
2023-04-15T00:54:25.589Z,90.75
2023-04-15T00:57:14.024Z,90.71
2023-04-15T01:00:02.660Z,90.72
2023-04-15T01:02:53.233Z,90.79
2023-04-15T01:05:41.826Z,90.38
2023-04-15T01:08:30.887Z,89.65
2023-04-15T01:11:19.482Z,89.63
2023-04-15T01:14:08.369Z,89.39
2023-04-15T01:16:56.808Z,89.17
2023-04-15T01:19:46.640Z,90.36
2023-04-15T01:22:35.653Z,90.40
2023-04-15T01:25:33.182Z,90.47
2023-04-15T01:28:21.597Z,90.59
2023-04-15T01:31:11.708Z,90.45
2023-04-15T01:34:00.872Z,90.09
2023-04-15T01:37:07.814Z,90.19
2023-04-15T01:39:57.313Z,89.80
2023-04-15T01:42:47.012Z,89.82
2023-04-15T01:45:38.276Z,90.30
2023-04-15T01:48:28.295Z,90.56
2023-04-15T01:51:19.500Z,91.10
2023-04-15T01:54:09.077Z,91.11
2023-04-15T01:56:58.896Z,91.43
2023-04-15T01:59:49.822Z,91.99
2023-04-15T02:02:39.730Z,91.65
2023-04-15T02:05:29.530Z,92.64
2023-04-15T02:08:19.112Z,92.66
2023-04-15T02:11:08.717Z,92.34
2023-04-15T02:13:58.343Z,92.27
2023-04-15T02:16:50.082Z,92.40
2023-04-15T02:19:40.563Z,92.21
2023-04-15T02:22:30.391Z,92.35
2023-04-15T02:25:20.525Z,92.59
2023-04-15T02:28:10.108Z,91.86
2023-04-15T02:30:59.906Z,91.61
2023-04-15T02:33:51.096Z,91.23
2023-04-15T02:36:40.787Z,90.66
2023-04-15T02:39:30.388Z,90.39
2023-04-15T02:42:21.719Z,90.24
2023-04-15T02:45:13.240Z,90.25
2023-04-15T02:48:06.338Z,90.11
2023-04-15T02:51:12.355Z,89.78
2023-04-15T02:54:02.069Z,89.42
2023-04-15T02:56:52.262Z,89.12
2023-04-15T02:59:41.832Z,89.41
2023-04-15T03:02:35.367Z,89.98
2023-04-15T03:05:25.775Z,90.69
2023-04-15T03:08:16.705Z,90.97
2023-04-15T03:11:07.721Z,90.92
2023-04-15T03:13:59.060Z,90.90
2023-04-15T03:16:54.285Z,90.78
2023-04-15T03:19:43.860Z,90.74
2023-04-15T03:22:34.603Z,91.18
2023-04-15T03:25:27.133Z,92.00
2023-04-15T03:28:16.869Z,92.11
2023-04-15T03:31:06.769Z,91.48
2023-04-15T03:33:56.432Z,91.66
2023-04-15T03:36:47.323Z,92.21
2023-04-15T03:39:37.095Z,91.71
2023-04-15T03:42:28.106Z,92.14
2023-04-15T03:45:17.894Z,92.95
2023-04-15T03:48:17.323Z,93.17
2023-04-15T03:51:07.678Z,93.13
2023-04-15T03:53:57.200Z,93.25
2023-04-15T03:56:46.756Z,92.34
2023-04-15T03:59:37.754Z,92.28
2023-04-15T04:02:28.304Z,91.59
2023-04-15T04:05:18.854Z,92.18
2023-04-15T04:08:09.112Z,92.11
2023-04-15T04:10:58.712Z,91.83
2023-04-15T04:13:48.321Z,91.82
2023-04-15T04:16:39.274Z,91.49
2023-04-15T04:19:30.016Z,91.39
2023-04-15T04:22:19.575Z,91.93
2023-04-15T04:25:11.119Z,91.73
2023-04-15T04:28:00.744Z,91.81
2023-04-15T04:30:50.669Z,91.27
2023-04-15T04:33:41.925Z,91.73
2023-04-15T04:36:31.746Z,91.88
2023-04-15T04:39:21.281Z,92.65
2023-04-15T04:42:10.843Z,92.31
2023-04-15T04:45:00.489Z,92.19
2023-04-15T04:47:50.306Z,92.30
2023-04-15T04:50:41.386Z,92.43
2023-04-15T04:53:31.108Z,92.33
2023-04-15T04:56:20.685Z,92.33
2023-04-15T04:59:10.472Z,91.86
2023-04-15T05:02:00.188Z,92.29
2023-04-15T05:04:50.171Z,92.42
2023-04-15T05:07:41.166Z,92.65
2023-04-15T05:10:30.706Z,92.33
2023-04-15T05:13:21.639Z,92.63
2023-04-15T05:16:11.310Z,92.32
2023-04-15T05:19:01.213Z,92.49
2023-04-15T05:21:51.040Z,92.41
2023-04-15T05:24:42.076Z,92.81
2023-04-15T05:27:31.788Z,92.85
2023-04-15T05:30:22.263Z,92.33
2023-04-15T05:33:11.848Z,92.62
2023-04-15T05:36:01.454Z,92.45
2023-04-15T05:38:51.053Z,92.81
2023-04-15T05:41:42.028Z,93.19
2023-04-15T05:44:31.695Z,92.91
2023-04-15T05:47:21.400Z,92.99
2023-04-15T05:50:11.905Z,92.78
2023-04-15T05:53:02.082Z,92.91
2023-04-15T05:55:51.639Z,92.71
2023-04-15T05:58:42.548Z,92.81
2023-04-15T06:01:32.169Z,92.91
2023-04-15T06:04:21.977Z,93.52
2023-04-15T06:07:11.621Z,92.85
2023-04-15T06:10:01.584Z,93.27
2023-04-15T06:12:51.238Z,93.91
2023-04-15T06:15:42.328Z,94.21
2023-04-15T06:18:31.900Z,94.68
2023-04-15T06:21:21.613Z,94.74
2023-04-15T06:24:11.458Z,94.13
2023-04-15T06:27:02.185Z,94.42
2023-04-15T06:29:51.729Z,94.34
2023-04-15T06:32:42.710Z,94.73
2023-04-15T06:35:32.304Z,94.35
2023-04-15T06:38:21.910Z,95.08
2023-04-15T06:41:11.599Z,95.79
2023-04-15T06:44:01.203Z,95.22
2023-04-15T06:46:50.826Z,95.29
2023-04-15T06:49:43.172Z,95.77
2023-04-15T06:52:32.793Z,95.43
2023-04-15T06:55:22.390Z,94.58
2023-04-15T06:58:11.942Z,96.03
2023-04-15T07:01:05.440Z,96.44
2023-04-15T07:03:55.064Z,96.04
2023-04-15T07:06:46.121Z,96.09
2023-04-15T07:09:35.737Z,94.82
2023-04-15T07:12:25.378Z,95.30
2023-04-15T07:15:14.939Z,95.40
2023-04-15T07:18:04.750Z,96.27
2023-04-15T07:20:54.348Z,96.24
2023-04-15T07:23:45.313Z,94.73
2023-04-15T07:26:34.844Z,95.08
2023-04-15T07:29:24.523Z,95.78
2023-04-15T07:32:14.086Z,95.24
2023-04-15T07:35:03.803Z,95.85
2023-04-15T07:37:53.388Z,95.53
2023-04-15T07:40:44.382Z,95.15
2023-04-15T07:43:33.959Z,94.96
2023-04-15T07:46:24.695Z,93.12
2023-04-15T07:49:14.484Z,93.59
2023-04-15T07:52:04.219Z,93.50
2023-04-15T07:54:53.742Z,94.26
2023-04-15T07:57:44.749Z,93.96
2023-04-15T08:00:34.451Z,93.71
2023-04-15T08:03:24.093Z,93.56
2023-04-15T08:06:14.297Z,93.09
2023-04-15T08:09:04.199Z,93.81
2023-04-15T08:11:54.575Z,93.26
2023-04-15T08:14:45.956Z,92.80
2023-04-15T08:17:35.629Z,92.40
2023-04-15T08:20:25.351Z,93.09
2023-04-15T08:23:14.964Z,93.18
2023-04-15T08:26:04.814Z,92.96
2023-04-15T08:28:54.468Z,93.53
2023-04-15T08:31:45.717Z,92.41
2023-04-15T08:34:35.853Z,92.85
2023-04-15T08:37:26.736Z,92.74
2023-04-15T08:40:17.063Z,91.43
2023-04-15T08:43:06.912Z,90.66
2023-04-15T08:45:59.051Z,90.38
2023-04-15T08:48:50.951Z,91.30
2023-04-15T08:51:41.468Z,90.72
2023-04-15T08:54:31.331Z,91.64
2023-04-15T08:57:21.176Z,92.48
2023-04-15T09:00:12.555Z,90.45
2023-04-15T09:03:02.359Z,90.53
2023-04-15T09:05:53.576Z,90.13
2023-04-15T09:08:43.167Z,90.87
2023-04-15T09:11:32.956Z,91.19
2023-04-15T09:14:22.886Z,91.35
2023-04-15T09:17:12.756Z,89.55
2023-04-15T09:20:09.780Z,90.22
2023-04-15T09:23:00.734Z,89.12
2023-04-15T09:25:50.599Z,89.18
2023-04-15T09:28:43.622Z,90.26
2023-04-15T09:31:33.339Z,89.40
2023-04-15T09:34:22.909Z,89.24
2023-04-15T09:37:24.608Z,88.36
2023-04-15T09:40:34.638Z,88.82
2023-04-15T09:43:25.592Z,88.00
2023-04-15T09:46:15.203Z,88.33
2023-04-15T09:49:09.212Z,87.79
2023-04-15T09:52:06.231Z,87.93
2023-04-15T09:54:58.218Z,87.73
2023-04-15T09:57:49.261Z,86.84
2023-04-15T10:00:39.058Z,87.30
2023-04-15T10:03:31.176Z,86.98
2023-04-15T10:06:21.287Z,86.18
2023-04-15T10:09:10.891Z,86.57
2023-04-15T10:12:01.163Z,87.22
2023-04-15T10:14:56.704Z,84.43
2023-04-15T10:17:46.795Z,87.42
2023-04-15T10:20:36.945Z,87.74
2023-04-15T10:23:27.388Z,85.22
2023-04-15T10:26:17.696Z,84.66
2023-04-15T10:29:07.478Z,86.11
2023-04-15T10:31:58.725Z,85.70
2023-04-15T10:34:49.603Z,85.53
2023-04-15T10:37:40.094Z,86.19
2023-04-15T10:40:31.676Z,85.74
2023-04-15T10:43:27.052Z,83.03
2023-04-15T10:46:19.805Z,83.89
2023-04-15T10:49:17.342Z,84.77
2023-04-15T10:52:09.682Z,84.44
2023-04-15T10:55:14.672Z,83.33
2023-04-15T10:58:04.325Z,83.85
2023-04-15T11:00:55.483Z,84.80
2023-04-15T11:03:45.952Z,83.12
2023-04-15T11:06:46.411Z,82.21
2023-04-15T11:09:36.657Z,81.22
2023-04-15T11:12:35.579Z,81.85
2023-04-15T11:15:29.802Z,81.71
2023-04-15T11:18:20.955Z,81.80
2023-04-15T11:21:10.637Z,81.96
2023-04-15T11:24:02.325Z,80.42
2023-04-15T11:26:58.665Z,81.19
2023-04-15T11:29:48.355Z,78.85
2023-04-15T11:32:37.962Z,81.67
2023-04-15T11:35:28.505Z,80.50
2023-04-15T11:38:18.355Z,79.78
2023-04-15T11:41:09.335Z,79.66
2023-04-15T11:43:58.930Z,79.88
2023-04-15T11:46:48.608Z,77.36
2023-04-15T11:49:41.617Z,78.25
2023-04-15T11:52:29.969Z,80.49
2023-04-15T11:55:18.603Z,80.25
2023-04-15T11:58:10.489Z,78.75
2023-04-15T12:01:00.092Z,79.51
2023-04-15T12:03:49.576Z,77.77
2023-04-15T12:06:39.108Z,78.09
2023-04-15T12:09:27.940Z,78.44
2023-04-15T12:12:16.661Z,75.67
2023-04-15T12:15:07.309Z,76.10
2023-04-15T12:17:56.137Z,75.73
2023-04-15T12:20:45.770Z,76.38
2023-04-15T12:23:38.424Z,77.38
2023-04-15T12:26:31.338Z,80.14
2023-04-15T12:29:19.980Z,79.70
2023-04-15T12:32:10.902Z,80.71
2023-04-15T12:34:59.633Z,80.35
2023-04-15T12:37:47.950Z,77.51
2023-04-15T12:40:36.349Z,79.66
2023-04-15T12:43:24.716Z,76.66
2023-04-15T12:46:13.156Z,77.34
2023-04-15T12:49:02.889Z,78.45
2023-04-15T12:51:52.767Z,78.25
2023-04-15T12:54:41.214Z,76.07
2023-04-15T12:57:29.620Z,75.54
2023-04-15T13:00:18.513Z,76.40
2023-04-15T13:03:07.328Z,75.73
2023-04-15T13:05:57.831Z,76.15
2023-04-15T13:08:57.423Z,74.84
2023-04-15T13:14:35.533Z,75.90
2023-04-15T13:17:23.907Z,79.06
2023-04-15T13:20:12.467Z,77.65
2023-04-15T13:23:02.144Z,76.23
2023-04-15T13:25:50.486Z,76.99
2023-04-15T13:28:39.033Z,76.74
2023-04-15T13:31:27.462Z,74.79
2023-04-15T13:34:16.048Z,75.19
2023-04-15T13:37:07.758Z,75.08
2023-04-15T13:39:57.736Z,75.12
2023-04-15T13:42:47.132Z,75.58
2023-04-15T13:45:35.570Z,74.68
2023-04-15T13:48:24.044Z,74.97
2023-04-15T13:51:12.413Z,73.59
2023-04-15T13:54:00.901Z,73.60
2023-04-15T13:56:50.755Z,72.51
2023-04-15T13:59:39.090Z,74.86
2023-04-15T14:02:27.705Z,74.13
2023-04-15T14:05:16.149Z,73.55
2023-04-15T14:08:04.504Z,71.55
2023-04-15T14:10:52.890Z,72.23
2023-04-15T14:13:42.594Z,72.86
2023-04-15T14:16:31.114Z,74.23
2023-04-15T14:19:19.514Z,72.44
2023-04-15T14:22:07.896Z,72.58
2023-04-15T14:24:56.291Z,73.21
2023-04-15T14:27:44.733Z,73.62
2023-04-15T14:30:34.761Z,73.41
2023-04-15T14:33:23.209Z,73.76
2023-04-15T14:36:11.612Z,73.74
2023-04-15T14:39:00.022Z,72.71
2023-04-15T14:41:48.732Z,74.19
2023-04-15T14:44:37.182Z,76.20
2023-04-15T14:47:26.918Z,75.84
2023-04-15T14:50:15.454Z,75.97
2023-04-15T14:53:03.878Z,76.27
2023-04-15T14:55:52.291Z,75.27
2023-04-15T14:58:40.806Z,76.05
2023-04-15T15:01:30.154Z,76.15
2023-04-15T15:04:20.232Z,76.63
2023-04-15T15:07:08.835Z,75.56
2023-04-15T15:09:57.532Z,75.49
2023-04-15T15:12:46.051Z,75.87
2023-04-15T15:15:34.541Z,75.17
2023-04-15T15:18:25.490Z,76.59
2023-04-15T15:21:15.305Z,76.26
2023-04-15T15:24:04.028Z,75.96
2023-04-15T15:26:52.580Z,76.26
2023-04-15T15:29:41.029Z,74.92
2023-04-15T15:32:29.462Z,75.80
2023-04-15T15:35:17.816Z,75.90
2023-04-15T15:38:07.578Z,76.62
2023-04-15T15:40:55.930Z,76.74
2023-04-15T15:43:44.297Z,75.32
2023-04-15T15:46:32.654Z,75.85
2023-04-15T15:49:21.062Z,77.16
2023-04-15T15:52:09.746Z,77.00
2023-04-15T15:54:59.476Z,76.52
2023-04-15T15:57:47.854Z,77.15
2023-04-15T16:00:36.768Z,77.41
2023-04-15T16:03:25.311Z,77.52
2023-04-15T16:06:13.714Z,78.04
2023-04-15T16:09:02.345Z,78.77
2023-04-15T16:11:52.462Z,79.48
2023-04-15T16:14:40.914Z,79.76
2023-04-15T16:17:29.291Z,80.21
2023-04-15T16:20:17.685Z,80.53
2023-04-15T16:23:11.627Z,80.58
2023-04-15T16:26:00.930Z,79.76
2023-04-15T16:28:50.715Z,80.79
2023-04-15T16:31:41.423Z,80.78
2023-04-15T16:34:29.815Z,81.30
2023-04-15T16:37:18.239Z,80.66
2023-04-15T16:40:08.355Z,81.20
2023-04-15T16:42:56.853Z,81.23
2023-04-15T16:45:50.885Z,81.71
2023-04-15T16:48:39.680Z,81.58
2023-04-15T16:51:29.092Z,81.87
2023-04-15T16:54:17.455Z,81.34
2023-04-15T16:57:05.810Z,82.59
2023-04-15T16:59:54.151Z,82.05
2023-04-15T17:02:44.132Z,82.47
2023-04-15T17:05:32.872Z,82.77
2023-04-15T17:08:21.399Z,82.42
2023-04-15T17:11:09.950Z,82.91
2023-04-15T17:13:58.399Z,83.26
2023-04-15T17:16:47.605Z,84.27
2023-04-15T17:19:37.528Z,84.13
2023-04-15T17:22:28.680Z,84.83
2023-04-15T17:25:17.717Z,85.28
2023-04-15T17:28:10.847Z,85.33
2023-04-15T17:30:59.665Z,85.04
2023-04-15T17:34:09.316Z,85.19
2023-04-15T17:36:59.421Z,85.54
2023-04-15T17:40:09.095Z,86.49
2023-04-15T17:43:17.402Z,85.72
2023-04-15T17:46:25.984Z,85.80
2023-04-15T17:49:34.479Z,86.46
2023-04-15T17:52:45.122Z,86.25
2023-04-15T17:55:53.833Z,86.07
2023-04-15T17:59:02.595Z,86.17
2023-04-15T18:02:11.619Z,86.01
2023-04-15T18:05:20.876Z,86.43
2023-04-15T18:08:30.725Z,86.19
2023-04-15T18:11:40.096Z,86.35
2023-04-15T18:14:48.435Z,87.30
2023-04-15T18:17:56.785Z,87.40
2023-04-15T18:20:45.114Z,87.32
2023-04-15T18:23:34.849Z,88.03
2023-04-15T18:26:23.177Z,87.73
2023-04-15T18:29:11.760Z,88.47
2023-04-15T18:32:02.699Z,88.24
2023-04-15T18:34:51.166Z,89.15
2023-04-15T18:37:39.585Z,90.09
2023-04-15T18:40:29.372Z,89.99
2023-04-15T18:43:17.757Z,90.70
2023-04-15T18:46:10.095Z,90.86
2023-04-15T18:48:58.545Z,91.52
2023-04-15T18:51:46.974Z,92.99
2023-04-15T18:54:35.367Z,92.59
2023-04-15T18:57:32.566Z,92.35
2023-04-15T19:00:23.416Z,93.15
2023-04-15T19:03:11.936Z,93.31
2023-04-15T19:06:00.353Z,93.05
2023-04-15T19:08:48.738Z,93.46
2023-04-15T19:11:37.101Z,94.66
2023-04-15T19:14:26.907Z,94.67
2023-04-15T19:17:15.415Z,94.65
2023-04-15T19:20:03.807Z,95.26
2023-04-15T19:22:52.202Z,95.33
2023-04-15T19:25:40.676Z,96.42
2023-04-15T19:28:29.174Z,96.64
2023-04-15T19:31:19.039Z,95.75
2023-04-15T19:34:07.450Z,95.74
2023-04-15T19:36:55.981Z,95.86
2023-04-15T19:39:44.364Z,95.67
2023-04-15T19:42:32.694Z,96.61
2023-04-15T19:45:21.054Z,96.55
2023-04-15T19:48:10.777Z,96.38
2023-04-15T19:50:59.872Z,95.92
2023-04-15T19:53:49.543Z,95.72
2023-04-15T19:56:37.972Z,96.69
2023-04-15T19:59:26.353Z,96.86
2023-04-15T20:02:14.998Z,97.10
2023-04-15T20:05:09.669Z,97.10
2023-04-15T20:07:59.844Z,97.80
2023-04-15T20:10:48.340Z,97.63
2023-04-15T20:13:36.964Z,97.70
2023-04-15T20:16:26.342Z,97.19
2023-04-15T20:19:14.770Z,97.25
2023-04-15T20:22:04.478Z,97.34
2023-04-15T20:24:52.849Z,97.44
2023-04-15T20:27:41.461Z,97.54
2023-04-15T20:30:30.014Z,97.91
2023-04-15T20:33:18.504Z,97.89
2023-04-15T20:36:07.504Z,97.11
2023-04-15T20:38:57.207Z,97.07
2023-04-15T20:41:45.714Z,97.24
2023-04-15T20:44:34.558Z,96.94
2023-04-15T20:47:23.014Z,97.22
2023-04-15T20:50:12.602Z,97.90
2023-04-15T20:53:01.290Z,97.91
2023-04-15T20:55:50.995Z,98.00
2023-04-15T20:58:39.652Z,98.27
2023-04-15T21:01:28.187Z,98.40
2023-04-15T21:04:16.723Z,98.62
2023-04-15T21:07:05.199Z,98.86
2023-04-15T21:09:55.266Z,98.64
2023-04-15T21:12:44.953Z,98.60
2023-04-15T21:15:33.382Z,98.42
2023-04-15T21:18:21.865Z,98.08
2023-04-15T21:21:10.246Z,97.92
2023-04-15T21:23:59.670Z,97.99
2023-04-15T21:26:48.116Z,97.88
2023-04-15T21:29:40.269Z,98.00
2023-04-15T21:32:30.502Z,98.38
2023-04-15T21:35:18.989Z,98.32
2023-04-15T21:38:07.431Z,98.68
2023-04-15T21:40:55.897Z,99.20
2023-04-15T21:43:44.216Z,99.33
2023-04-15T21:46:35.633Z,99.10
2023-04-15T21:49:25.574Z,99.15
2023-04-15T21:52:14.007Z,98.61
2023-04-15T21:55:02.405Z,98.46
2023-04-15T21:57:50.851Z,98.81
2023-04-15T22:00:40.873Z,99.34
2023-04-15T22:03:33.527Z,99.24
2023-04-15T22:06:22.337Z,99.24
2023-04-15T22:09:13.984Z,98.75
2023-04-15T22:12:05.352Z,98.05
2023-04-15T22:14:53.905Z,97.82
2023-04-15T22:17:44.437Z,98.86
2023-04-15T22:20:34.419Z,100.00
2023-04-15T22:23:22.798Z,100.00
2023-04-15T22:26:11.265Z,100.00
2023-04-15T22:28:59.629Z,100.00
2023-04-15T22:31:48.033Z,100.00
2023-04-15T22:34:36.398Z,100.00
2023-04-15T22:37:26.208Z,100.00
2023-04-15T22:40:15.063Z,100.00
2023-04-15T22:43:03.499Z,100.00
2023-04-15T22:45:53.074Z,100.00
2023-04-15T22:48:42.526Z,100.00
2023-04-15T22:51:31.550Z,100.00
2023-04-15T22:54:21.326Z,100.00
2023-04-15T22:57:09.685Z,100.00
2023-04-15T22:59:58.053Z,100.00
2023-04-15T23:02:46.511Z,100.00
2023-04-15T23:05:34.904Z,100.00
2023-04-15T23:08:23.929Z,100.00
2023-04-15T23:11:13.977Z,100.00
2023-04-15T23:14:02.662Z,100.00
2023-04-15T23:16:51.060Z,100.00
2023-04-15T23:19:39.469Z,100.00
2023-04-15T23:22:27.787Z,100.00
2023-04-15T23:25:16.293Z,100.00
2023-04-15T23:28:07.056Z,100.00
2023-04-15T23:30:55.493Z,100.00
2023-04-15T23:33:43.922Z,100.00
2023-04-15T23:36:32.851Z,100.00
2023-04-15T23:39:21.203Z,100.00
2023-04-15T23:42:09.578Z,100.00
2023-04-15T23:44:59.296Z,100.00
2023-04-15T23:47:47.762Z,100.00
2023-04-15T23:50:36.168Z,100.00
2023-04-15T23:53:24.550Z,100.00
2023-04-15T23:56:12.872Z,100.00
2023-04-15T23:59:01.280Z,100.00
